sensor_id;sensor_type;location;lat;lon;timestamp;temperature;humidity
29571;DHT22;16814;52.118;11.436;2023-05-10T00:02:22;11.40;99.90
29571;DHT22;16814;52.118;11.436;2023-05-10T00:04:49;11.30;99.90
29571;DHT22;16814;52.118;11.436;2023-05-10T00:07:16;11.20;99.90
29571;DHT22;16814;52.118;11.436;2023-05-10T00:09:44;11.10;99.90
29571;DHT22;16814;52.118;11.436;2023-05-10T00:12:13;11.20;99.90
29571;DHT22;16814;52.118;11.436;2023-05-10T00:14:50;11.20;99.90
29571;DHT22;16814;52.118;11.436;2023-05-10T00:17:17;11.20;99.90
29571;DHT22;16814;52.118;11.436;2023-05-10T00:19:46;11.20;99.90
29571;DHT22;16814;52.118;11.436;2023-05-10T00:22:13;11.20;99.90
29571;DHT22;16814;52.118;11.436;2023-05-10T00:24:40;11.10;99.90
29571;DHT22;16814;52.118;11.436;2023-05-10T00:27:10;11.00;99.90
29571;DHT22;16814;52.118;11.436;2023-05-10T00:29:35;10.90;99.90
29571;DHT22;16814;52.118;11.436;2023-05-10T00:32:02;10.70;99.90
29571;DHT22;16814;52.118;11.436;2023-05-10T00:34:29;10.60;99.90
29571;DHT22;16814;52.118;11.436;2023-05-10T00:36:55;10.60;99.90
29571;DHT22;16814;52.118;11.436;2023-05-10T00:39:24;10.50;99.90
29571;DHT22;16814;52.118;11.436;2023-05-10T00:41:49;10.50;99.90
29571;DHT22;16814;52.118;11.436;2023-05-10T00:44:15;10.50;99.90
29571;DHT22;16814;52.118;11.436;2023-05-10T00:46:42;10.50;99.90
29571;DHT22;16814;52.118;11.436;2023-05-10T00:49:11;10.40;99.90
29571;DHT22;16814;52.118;11.436;2023-05-10T00:51:38;10.40;99.90
29571;DHT22;16814;52.118;11.436;2023-05-10T00:54:06;10.30;99.90
29571;DHT22;16814;52.118;11.436;2023-05-10T00:56:35;10.20;99.90
29571;DHT22;16814;52.118;11.436;2023-05-10T00:59:04;10.10;99.90
29571;DHT22;16814;52.118;11.436;2023-05-10T01:01:31;10.10;99.90
29571;DHT22;16814;52.118;11.436;2023-05-10T01:03:59;10.20;99.90
29571;DHT22;16814;52.118;11.436;2023-05-10T01:06:26;10.30;99.90
29571;DHT22;16814;52.118;11.436;2023-05-10T01:08:53;10.20;99.90
29571;DHT22;16814;52.118;11.436;2023-05-10T01:11:21;10.20;99.90
29571;DHT22;16814;52.118;11.436;2023-05-10T01:13:56;10.30;99.90
29571;DHT22;16814;52.118;11.436;2023-05-10T01:16:24;10.40;99.90
29571;DHT22;16814;52.118;11.436;2023-05-10T01:18:57;10.40;99.90
29571;DHT22;16814;52.118;11.436;2023-05-10T01:27:14;10.40;99.90
29571;DHT22;16814;52.118;11.436;2023-05-10T01:36:43;10.50;99.90
29571;DHT22;16814;52.118;11.436;2023-05-10T01:38:49;10.50;99.90
29571;DHT22;16814;52.118;11.436;2023-05-10T01:44:22;10.10;99.90
29571;DHT22;16814;52.118;11.436;2023-05-10T01:47:01;10.20;99.90
29571;DHT22;16814;52.118;11.436;2023-05-10T01:49:40;10.10;99.90
29571;DHT22;16814;52.118;11.436;2023-05-10T01:52:14;10.10;99.90
29571;DHT22;16814;52.118;11.436;2023-05-10T01:54:44;10.10;99.90
29571;DHT22;16814;52.118;11.436;2023-05-10T01:57:15;10.00;99.90
29571;DHT22;16814;52.118;11.436;2023-05-10T01:59:45;9.80;99.90
29571;DHT22;16814;52.118;11.436;2023-05-10T02:02:16;9.70;99.90
29571;DHT22;16814;52.118;11.436;2023-05-10T02:04:45;9.70;99.90
29571;DHT22;16814;52.118;11.436;2023-05-10T02:07:12;9.70;99.90
29571;DHT22;16814;52.118;11.436;2023-05-10T02:09:45;9.80;99.90
29571;DHT22;16814;52.118;11.436;2023-05-10T02:12:19;9.70;99.90
29571;DHT22;16814;52.118;11.436;2023-05-10T02:14:48;9.60;99.90
29571;DHT22;16814;52.118;11.436;2023-05-10T02:17:21;9.50;99.90
29571;DHT22;16814;52.118;11.436;2023-05-10T02:19:48;9.50;99.90
29571;DHT22;16814;52.118;11.436;2023-05-10T02:22:18;9.50;99.90
29571;DHT22;16814;52.118;11.436;2023-05-10T02:24:44;9.50;99.90
29571;DHT22;16814;52.118;11.436;2023-05-10T02:27:13;9.40;99.90
29571;DHT22;16814;52.118;11.436;2023-05-10T02:29:41;9.30;99.90
29571;DHT22;16814;52.118;11.436;2023-05-10T02:32:17;9.30;99.90
29571;DHT22;16814;52.118;11.436;2023-05-10T02:34:44;9.40;99.90
29571;DHT22;16814;52.118;11.436;2023-05-10T02:37:16;9.30;99.90
29571;DHT22;16814;52.118;11.436;2023-05-10T02:39:49;9.30;99.90
29571;DHT22;16814;52.118;11.436;2023-05-10T02:42:18;9.30;99.90
29571;DHT22;16814;52.118;11.436;2023-05-10T02:44:48;9.10;99.90
29571;DHT22;16814;52.118;11.436;2023-05-10T02:47:16;9.00;99.90
29571;DHT22;16814;52.118;11.436;2023-05-10T02:49:43;9.30;99.90
29571;DHT22;16814;52.118;11.436;2023-05-10T02:52:36;9.20;99.90
29571;DHT22;16814;52.118;11.436;2023-05-10T02:55:11;9.20;99.90
29571;DHT22;16814;52.118;11.436;2023-05-10T02:57:51;9.30;99.90
29571;DHT22;16814;52.118;11.436;2023-05-10T03:00:19;9.20;99.90
29571;DHT22;16814;52.118;11.436;2023-05-10T03:02:53;9.30;99.90
29571;DHT22;16814;52.118;11.436;2023-05-10T03:05:21;9.20;99.90
29571;DHT22;16814;52.118;11.436;2023-05-10T03:07:50;9.20;99.90
29571;DHT22;16814;52.118;11.436;2023-05-10T03:10:18;9.30;99.90
29571;DHT22;16814;52.118;11.436;2023-05-10T03:16:06;9.30;99.90
29571;DHT22;16814;52.118;11.436;2023-05-10T03:18:56;9.10;99.90
29571;DHT22;16814;52.118;11.436;2023-05-10T03:21:28;9.10;99.90
29571;DHT22;16814;52.118;11.436;2023-05-10T03:24:03;9.00;99.90
29571;DHT22;16814;52.118;11.436;2023-05-10T03:26:32;8.90;99.90
29571;DHT22;16814;52.118;11.436;2023-05-10T03:28:58;8.90;99.90
29571;DHT22;16814;52.118;11.436;2023-05-10T03:31:25;8.90;99.90
29571;DHT22;16814;52.118;11.436;2023-05-10T03:33:54;8.90;99.90
29571;DHT22;16814;52.118;11.436;2023-05-10T03:36:23;9.20;99.90
29571;DHT22;16814;52.118;11.436;2023-05-10T03:38:51;9.20;99.90
29571;DHT22;16814;52.118;11.436;2023-05-10T03:41:17;9.20;99.90
29571;DHT22;16814;52.118;11.436;2023-05-10T03:43:45;9.30;99.90
29571;DHT22;16814;52.118;11.436;2023-05-10T03:46:11;9.30;99.90
29571;DHT22;16814;52.118;11.436;2023-05-10T03:48:39;9.40;99.90
29571;DHT22;16814;52.118;11.436;2023-05-10T03:51:07;9.40;99.90
29571;DHT22;16814;52.118;11.436;2023-05-10T03:53:34;9.60;99.90
29571;DHT22;16814;52.118;11.436;2023-05-10T03:56:03;9.60;99.90
29571;DHT22;16814;52.118;11.436;2023-05-10T03:58:29;9.70;99.90
29571;DHT22;16814;52.118;11.436;2023-05-10T04:00:57;9.60;99.90
29571;DHT22;16814;52.118;11.436;2023-05-10T04:03:24;9.60;99.90
29571;DHT22;16814;52.118;11.436;2023-05-10T04:06:00;9.60;99.90
29571;DHT22;16814;52.118;11.436;2023-05-10T04:08:34;9.60;99.90
29571;DHT22;16814;52.118;11.436;2023-05-10T04:11:11;9.70;99.90
29571;DHT22;16814;52.118;11.436;2023-05-10T04:13:38;9.60;99.90
29571;DHT22;16814;52.118;11.436;2023-05-10T04:16:05;9.60;99.90
29571;DHT22;16814;52.118;11.436;2023-05-10T04:18:33;9.70;99.90
29571;DHT22;16814;52.118;11.436;2023-05-10T04:21:01;9.80;99.90
29571;DHT22;16814;52.118;11.436;2023-05-10T04:23:30;9.80;99.90
29571;DHT22;16814;52.118;11.436;2023-05-10T04:26:03;9.80;99.90
29571;DHT22;16814;52.118;11.436;2023-05-10T04:28:31;9.80;99.90
29571;DHT22;16814;52.118;11.436;2023-05-10T04:31:04;9.90;99.90
29571;DHT22;16814;52.118;11.436;2023-05-10T04:33:31;10.40;99.90
29571;DHT22;16814;52.118;11.436;2023-05-10T04:35:57;10.10;99.90
29571;DHT22;16814;52.118;11.436;2023-05-10T04:38:25;10.10;99.90
29571;DHT22;16814;52.118;11.436;2023-05-10T04:40:52;10.20;99.90
29571;DHT22;16814;52.118;11.436;2023-05-10T04:43:21;10.40;99.90
29571;DHT22;16814;52.118;11.436;2023-05-10T04:45:47;10.40;99.90
29571;DHT22;16814;52.118;11.436;2023-05-10T04:48:15;10.40;99.90
29571;DHT22;16814;52.118;11.436;2023-05-10T04:50:42;10.50;99.90
29571;DHT22;16814;52.118;11.436;2023-05-10T04:53:19;10.80;99.90
29571;DHT22;16814;52.118;11.436;2023-05-10T04:55:46;11.00;99.90
29571;DHT22;16814;52.118;11.436;2023-05-10T04:58:14;11.00;99.90
29571;DHT22;16814;52.118;11.436;2023-05-10T05:00:40;11.00;99.90
29571;DHT22;16814;52.118;11.436;2023-05-10T05:03:12;11.10;99.90
29571;DHT22;16814;52.118;11.436;2023-05-10T05:05:38;11.30;99.90
29571;DHT22;16814;52.118;11.436;2023-05-10T05:08:06;11.40;99.90
29571;DHT22;16814;52.118;11.436;2023-05-10T05:10:35;11.90;99.90
29571;DHT22;16814;52.118;11.436;2023-05-10T05:13:03;12.50;99.90
29571;DHT22;16814;52.118;11.436;2023-05-10T05:15:38;13.20;99.90
29571;DHT22;16814;52.118;11.436;2023-05-10T05:18:05;14.10;99.90
29571;DHT22;16814;52.118;11.436;2023-05-10T05:20:36;14.90;99.90
29571;DHT22;16814;52.118;11.436;2023-05-10T05:23:02;15.40;99.90
29571;DHT22;16814;52.118;11.436;2023-05-10T05:25:29;15.80;99.90
29571;DHT22;16814;52.118;11.436;2023-05-10T05:28:00;15.30;99.90
29571;DHT22;16814;52.118;11.436;2023-05-10T05:30:27;15.60;99.90
29571;DHT22;16814;52.118;11.436;2023-05-10T05:32:52;16.10;99.90
29571;DHT22;16814;52.118;11.436;2023-05-10T05:35:19;16.20;99.90
29571;DHT22;16814;52.118;11.436;2023-05-10T05:37:48;16.30;99.90
29571;DHT22;16814;52.118;11.436;2023-05-10T05:40:16;16.80;99.90
29571;DHT22;16814;52.118;11.436;2023-05-10T05:42:43;16.80;99.90
29571;DHT22;16814;52.118;11.436;2023-05-10T05:45:11;16.50;99.90
29571;DHT22;16814;52.118;11.436;2023-05-10T05:47:39;16.30;99.90
29571;DHT22;16814;52.118;11.436;2023-05-10T05:50:12;15.90;99.90
29571;DHT22;16814;52.118;11.436;2023-05-10T05:52:39;15.30;99.90
29571;DHT22;16814;52.118;11.436;2023-05-10T05:55:05;14.60;99.90
29571;DHT22;16814;52.118;11.436;2023-05-10T05:57:32;13.90;99.90
29571;DHT22;16814;52.118;11.436;2023-05-10T05:59:59;13.70;99.90
29571;DHT22;16814;52.118;11.436;2023-05-10T06:02:27;13.60;99.90
29571;DHT22;16814;52.118;11.436;2023-05-10T06:04:54;13.70;99.90
29571;DHT22;16814;52.118;11.436;2023-05-10T06:07:21;13.80;99.90
29571;DHT22;16814;52.118;11.436;2023-05-10T06:09:48;13.70;99.90
29571;DHT22;16814;52.118;11.436;2023-05-10T06:12:16;13.70;99.90
29571;DHT22;16814;52.118;11.436;2023-05-10T06:14:44;13.60;99.90
29571;DHT22;16814;52.118;11.436;2023-05-10T06:17:10;13.60;99.90
29571;DHT22;16814;52.118;11.436;2023-05-10T06:19:36;13.50;99.90
29571;DHT22;16814;52.118;11.436;2023-05-10T06:22:04;13.40;99.90
29571;DHT22;16814;52.118;11.436;2023-05-10T06:24:32;13.40;99.90
29571;DHT22;16814;52.118;11.436;2023-05-10T06:26:59;13.40;99.90
29571;DHT22;16814;52.118;11.436;2023-05-10T06:29:29;13.50;99.90
29571;DHT22;16814;52.118;11.436;2023-05-10T06:31:56;13.50;99.90
29571;DHT22;16814;52.118;11.436;2023-05-10T06:34:24;13.80;99.90
29571;DHT22;16814;52.118;11.436;2023-05-10T06:36:59;13.90;99.90
29571;DHT22;16814;52.118;11.436;2023-05-10T06:39:24;13.80;99.90
29571;DHT22;16814;52.118;11.436;2023-05-10T06:41:52;14.00;99.90
29571;DHT22;16814;52.118;11.436;2023-05-10T06:44:21;14.20;99.90
29571;DHT22;16814;52.118;11.436;2023-05-10T06:46:49;14.20;99.90
29571;DHT22;16814;52.118;11.436;2023-05-10T06:49:16;14.20;99.90
29571;DHT22;16814;52.118;11.436;2023-05-10T06:51:42;14.20;99.90
29571;DHT22;16814;52.118;11.436;2023-05-10T06:54:08;14.20;99.90
29571;DHT22;16814;52.118;11.436;2023-05-10T06:56:37;14.20;99.90
29571;DHT22;16814;52.118;11.436;2023-05-10T06:59:05;14.20;99.90
29571;DHT22;16814;52.118;11.436;2023-05-10T07:01:31;14.00;99.90
29571;DHT22;16814;52.118;11.436;2023-05-10T07:03:58;13.90;99.90
29571;DHT22;16814;52.118;11.436;2023-05-10T07:06:25;14.00;99.90
29571;DHT22;16814;52.118;11.436;2023-05-10T07:08:52;14.10;99.90
29571;DHT22;16814;52.118;11.436;2023-05-10T07:11:18;14.20;99.90
29571;DHT22;16814;52.118;11.436;2023-05-10T07:13:43;14.30;99.90
29571;DHT22;16814;52.118;11.436;2023-05-10T07:16:12;14.40;99.90
29571;DHT22;16814;52.118;11.436;2023-05-10T07:18:39;14.20;99.90
29571;DHT22;16814;52.118;11.436;2023-05-10T07:21:07;14.30;99.90
29571;DHT22;16814;52.118;11.436;2023-05-10T07:23:37;14.20;99.90
29571;DHT22;16814;52.118;11.436;2023-05-10T07:26:04;14.20;99.90
29571;DHT22;16814;52.118;11.436;2023-05-10T07:28:33;14.30;99.90
29571;DHT22;16814;52.118;11.436;2023-05-10T07:30:58;14.30;99.90
29571;DHT22;16814;52.118;11.436;2023-05-10T07:33:25;14.40;99.90
29571;DHT22;16814;52.118;11.436;2023-05-10T07:35:55;14.20;99.90
29571;DHT22;16814;52.118;11.436;2023-05-10T07:38:20;14.40;99.90
29571;DHT22;16814;52.118;11.436;2023-05-10T07:40:47;14.50;99.90
29571;DHT22;16814;52.118;11.436;2023-05-10T07:43:14;14.70;99.90
29571;DHT22;16814;52.118;11.436;2023-05-10T07:45:41;14.70;99.90
29571;DHT22;16814;52.118;11.436;2023-05-10T07:48:18;14.80;99.90
29571;DHT22;16814;52.118;11.436;2023-05-10T07:50:45;14.70;99.90
29571;DHT22;16814;52.118;11.436;2023-05-10T07:53:12;14.80;99.90
29571;DHT22;16814;52.118;11.436;2023-05-10T07:55:40;14.90;99.90
29571;DHT22;16814;52.118;11.436;2023-05-10T07:58:08;15.00;99.90
29571;DHT22;16814;52.118;11.436;2023-05-10T08:00:33;15.10;99.90
29571;DHT22;16814;52.118;11.436;2023-05-10T08:03:00;15.20;99.90
29571;DHT22;16814;52.118;11.436;2023-05-10T08:05:36;15.30;99.90
29571;DHT22;16814;52.118;11.436;2023-05-10T08:08:02;15.40;99.90
29571;DHT22;16814;52.118;11.436;2023-05-10T08:10:29;15.20;99.90
29571;DHT22;16814;52.118;11.436;2023-05-10T08:12:57;15.20;99.90
29571;DHT22;16814;52.118;11.436;2023-05-10T08:15:27;15.20;99.90
29571;DHT22;16814;52.118;11.436;2023-05-10T08:18:03;15.20;99.90
29571;DHT22;16814;52.118;11.436;2023-05-10T08:20:31;15.10;99.90
29571;DHT22;16814;52.118;11.436;2023-05-10T08:22:56;15.10;99.90
29571;DHT22;16814;52.118;11.436;2023-05-10T08:25:23;15.00;99.90
29571;DHT22;16814;52.118;11.436;2023-05-10T08:27:51;15.10;99.90
29571;DHT22;16814;52.118;11.436;2023-05-10T08:30:16;15.00;99.90
29571;DHT22;16814;52.118;11.436;2023-05-10T08:32:44;15.00;99.90
29571;DHT22;16814;52.118;11.436;2023-05-10T08:35:11;15.00;99.90
29571;DHT22;16814;52.118;11.436;2023-05-10T08:37:38;15.10;99.90
29571;DHT22;16814;52.118;11.436;2023-05-10T08:40:06;15.10;99.90
29571;DHT22;16814;52.118;11.436;2023-05-10T08:42:36;15.10;99.90
29571;DHT22;16814;52.118;11.436;2023-05-10T08:45:08;15.20;99.90
29571;DHT22;16814;52.118;11.436;2023-05-10T08:47:41;15.30;99.90
29571;DHT22;16814;52.118;11.436;2023-05-10T08:50:20;15.20;99.90
29571;DHT22;16814;52.118;11.436;2023-05-10T08:52:49;15.30;99.90
29571;DHT22;16814;52.118;11.436;2023-05-10T08:55:19;15.40;99.90
29571;DHT22;16814;52.118;11.436;2023-05-10T08:57:47;15.40;99.90
29571;DHT22;16814;52.118;11.436;2023-05-10T09:00:13;15.30;99.90
29571;DHT22;16814;52.118;11.436;2023-05-10T09:02:40;15.30;99.90
29571;DHT22;16814;52.118;11.436;2023-05-10T09:05:08;15.30;99.90
29571;DHT22;16814;52.118;11.436;2023-05-10T09:07:36;15.40;99.90
29571;DHT22;16814;52.118;11.436;2023-05-10T09:10:04;15.50;99.90
29571;DHT22;16814;52.118;11.436;2023-05-10T09:12:30;15.50;99.90
29571;DHT22;16814;52.118;11.436;2023-05-10T09:14:59;15.60;99.90
29571;DHT22;16814;52.118;11.436;2023-05-10T09:17:27;15.60;99.90
29571;DHT22;16814;52.118;11.436;2023-05-10T09:20:00;15.70;99.90
29571;DHT22;16814;52.118;11.436;2023-05-10T09:22:27;15.90;99.90
29571;DHT22;16814;52.118;11.436;2023-05-10T09:25:19;15.80;99.90
29571;DHT22;16814;52.118;11.436;2023-05-10T09:27:47;15.90;99.90
29571;DHT22;16814;52.118;11.436;2023-05-10T09:30:29;16.00;99.90
29571;DHT22;16814;52.118;11.436;2023-05-10T09:32:56;16.00;99.90
29571;DHT22;16814;52.118;11.436;2023-05-10T09:35:27;16.10;99.90
29571;DHT22;16814;52.118;11.436;2023-05-10T09:38:00;16.00;99.90
29571;DHT22;16814;52.118;11.436;2023-05-10T09:40:29;16.10;99.90
29571;DHT22;16814;52.118;11.436;2023-05-10T09:43:09;16.20;99.90
29571;DHT22;16814;52.118;11.436;2023-05-10T09:45:38;16.30;99.90
29571;DHT22;16814;52.118;11.436;2023-05-10T09:48:05;16.60;99.90
29571;DHT22;16814;52.118;11.436;2023-05-10T09:50:34;16.70;99.90
29571;DHT22;16814;52.118;11.436;2023-05-10T09:53:02;16.80;99.90
29571;DHT22;16814;52.118;11.436;2023-05-10T09:55:45;16.80;99.90
29571;DHT22;16814;52.118;11.436;2023-05-10T09:58:15;16.60;99.90
29571;DHT22;16814;52.118;11.436;2023-05-10T10:00:43;16.70;99.90
29571;DHT22;16814;52.118;11.436;2023-05-10T10:03:17;16.80;99.90
29571;DHT22;16814;52.118;11.436;2023-05-10T10:05:44;17.00;99.90
29571;DHT22;16814;52.118;11.436;2023-05-10T10:08:20;17.10;99.90
29571;DHT22;16814;52.118;11.436;2023-05-10T10:10:49;17.30;99.90
29571;DHT22;16814;52.118;11.436;2023-05-10T10:13:25;17.30;99.90
29571;DHT22;16814;52.118;11.436;2023-05-10T10:15:55;17.60;99.90
29571;DHT22;16814;52.118;11.436;2023-05-10T10:18:21;17.60;99.90
29571;DHT22;16814;52.118;11.436;2023-05-10T10:20:54;17.60;99.90
29571;DHT22;16814;52.118;11.436;2023-05-10T10:23:24;17.60;99.90
29571;DHT22;16814;52.118;11.436;2023-05-10T10:25:53;17.60;99.90
29571;DHT22;16814;52.118;11.436;2023-05-10T10:31:40;17.80;99.90
29571;DHT22;16814;52.118;11.436;2023-05-10T10:34:28;17.80;99.90
29571;DHT22;16814;52.118;11.436;2023-05-10T10:36:57;17.80;99.90
29571;DHT22;16814;52.118;11.436;2023-05-10T10:39:25;17.70;99.90
29571;DHT22;16814;52.118;11.436;2023-05-10T10:41:56;17.80;99.90
29571;DHT22;16814;52.118;11.436;2023-05-10T10:44:35;17.70;99.90
29571;DHT22;16814;52.118;11.436;2023-05-10T10:50:09;17.50;99.90
29571;DHT22;16814;52.118;11.436;2023-05-10T10:52:42;17.40;99.90
29571;DHT22;16814;52.118;11.436;2023-05-10T10:55:14;17.30;99.90
29571;DHT22;16814;52.118;11.436;2023-05-10T10:57:49;17.30;99.90
29571;DHT22;16814;52.118;11.436;2023-05-10T11:00:36;17.30;99.90
29571;DHT22;16814;52.118;11.436;2023-05-10T11:03:13;17.10;99.90
29571;DHT22;16814;52.118;11.436;2023-05-10T11:05:55;17.10;99.90
29571;DHT22;16814;52.118;11.436;2023-05-10T11:08:34;17.10;99.90
29571;DHT22;16814;52.118;11.436;2023-05-10T11:13:44;17.20;99.90
29571;DHT22;16814;52.118;11.436;2023-05-10T11:16:22;17.10;99.90
29571;DHT22;16814;52.118;11.436;2023-05-10T11:19:13;17.10;99.90
29571;DHT22;16814;52.118;11.436;2023-05-10T11:24:34;16.80;99.90
29571;DHT22;16814;52.118;11.436;2023-05-10T11:27:01;16.90;99.90
29571;DHT22;16814;52.118;11.436;2023-05-10T11:29:27;16.80;99.90
29571;DHT22;16814;52.118;11.436;2023-05-10T11:31:58;16.80;99.90
29571;DHT22;16814;52.118;11.436;2023-05-10T11:34:28;16.80;99.90
29571;DHT22;16814;52.118;11.436;2023-05-10T11:36:56;16.90;99.90
29571;DHT22;16814;52.118;11.436;2023-05-10T11:39:32;16.90;99.90
29571;DHT22;16814;52.118;11.436;2023-05-10T11:42:00;16.90;99.90
29571;DHT22;16814;52.118;11.436;2023-05-10T11:44:32;16.70;99.90
29571;DHT22;16814;52.118;11.436;2023-05-10T11:47:03;16.90;99.90
29571;DHT22;16814;52.118;11.436;2023-05-10T11:49:30;17.10;99.90
29571;DHT22;16814;52.118;11.436;2023-05-10T11:52:07;17.10;99.90
29571;DHT22;16814;52.118;11.436;2023-05-10T11:54:33;17.30;99.90
29571;DHT22;16814;52.118;11.436;2023-05-10T11:57:02;17.30;99.90
29571;DHT22;16814;52.118;11.436;2023-05-10T11:59:30;17.20;99.90
29571;DHT22;16814;52.118;11.436;2023-05-10T12:01:59;17.00;99.90
29571;DHT22;16814;52.118;11.436;2023-05-10T12:04:28;17.10;99.90
29571;DHT22;16814;52.118;11.436;2023-05-10T12:07:01;16.80;99.90
29571;DHT22;16814;52.118;11.436;2023-05-10T12:09:26;16.80;99.90
29571;DHT22;16814;52.118;11.436;2023-05-10T12:11:56;16.60;99.90
29571;DHT22;16814;52.118;11.436;2023-05-10T12:14:27;16.50;99.90
29571;DHT22;16814;52.118;11.436;2023-05-10T12:17:01;16.40;99.90
29571;DHT22;16814;52.118;11.436;2023-05-10T12:19:43;16.40;99.90
29571;DHT22;16814;52.118;11.436;2023-05-10T12:22:10;16.40;99.90
29571;DHT22;16814;52.118;11.436;2023-05-10T12:24:47;16.60;99.90
29571;DHT22;16814;52.118;11.436;2023-05-10T12:27:14;16.70;99.90
29571;DHT22;16814;52.118;11.436;2023-05-10T12:29:42;16.40;99.90
29571;DHT22;16814;52.118;11.436;2023-05-10T12:32:11;16.10;99.90
29571;DHT22;16814;52.118;11.436;2023-05-10T12:34:36;15.70;99.90
29571;DHT22;16814;52.118;11.436;2023-05-10T12:37:06;15.70;99.90
29571;DHT22;16814;52.118;11.436;2023-05-10T12:39:41;15.60;99.90
29571;DHT22;16814;52.118;11.436;2023-05-10T12:42:08;15.60;99.90
29571;DHT22;16814;52.118;11.436;2023-05-10T12:44:33;15.70;99.90
29571;DHT22;16814;52.118;11.436;2023-05-10T12:47:01;15.70;99.90
29571;DHT22;16814;52.118;11.436;2023-05-10T12:49:29;15.80;99.90
29571;DHT22;16814;52.118;11.436;2023-05-10T12:51:55;16.00;99.90
29571;DHT22;16814;52.118;11.436;2023-05-10T12:54:22;16.10;99.90
29571;DHT22;16814;52.118;11.436;2023-05-10T12:56:49;16.10;99.90
29571;DHT22;16814;52.118;11.436;2023-05-10T12:59:17;16.20;99.90
29571;DHT22;16814;52.118;11.436;2023-05-10T13:01:44;16.50;99.90
29571;DHT22;16814;52.118;11.436;2023-05-10T13:04:12;16.60;99.90
29571;DHT22;16814;52.118;11.436;2023-05-10T13:06:38;16.60;99.90
29571;DHT22;16814;52.118;11.436;2023-05-10T13:09:08;16.80;99.90
29571;DHT22;16814;52.118;11.436;2023-05-10T13:11:36;17.10;99.90
29571;DHT22;16814;52.118;11.436;2023-05-10T13:14:04;17.20;99.90
29571;DHT22;16814;52.118;11.436;2023-05-10T13:16:31;17.10;99.90
29571;DHT22;16814;52.118;11.436;2023-05-10T13:18:56;17.00;99.90
29571;DHT22;16814;52.118;11.436;2023-05-10T13:21:22;16.80;99.90
29571;DHT22;16814;52.118;11.436;2023-05-10T13:23:49;16.70;99.90
29571;DHT22;16814;52.118;11.436;2023-05-10T13:26:17;16.80;99.90
29571;DHT22;16814;52.118;11.436;2023-05-10T13:28:45;16.60;99.90
29571;DHT22;16814;52.118;11.436;2023-05-10T13:31:13;16.50;99.90
29571;DHT22;16814;52.118;11.436;2023-05-10T13:33:40;16.60;99.90
29571;DHT22;16814;52.118;11.436;2023-05-10T13:36:07;16.60;99.90
29571;DHT22;16814;52.118;11.436;2023-05-10T13:38:35;16.90;99.90
29571;DHT22;16814;52.118;11.436;2023-05-10T13:41:02;17.00;99.90
29571;DHT22;16814;52.118;11.436;2023-05-10T13:43:29;17.00;99.90
29571;DHT22;16814;52.118;11.436;2023-05-10T13:45:54;16.90;99.90
29571;DHT22;16814;52.118;11.436;2023-05-10T13:48:22;17.00;99.90
29571;DHT22;16814;52.118;11.436;2023-05-10T13:50:56;17.00;99.90
29571;DHT22;16814;52.118;11.436;2023-05-10T13:53:27;16.70;99.90
29571;DHT22;16814;52.118;11.436;2023-05-10T13:55:52;16.80;99.90
29571;DHT22;16814;52.118;11.436;2023-05-10T13:58:21;16.80;99.90
29571;DHT22;16814;52.118;11.436;2023-05-10T14:00:48;16.80;99.90
29571;DHT22;16814;52.118;11.436;2023-05-10T14:03:14;17.00;99.90
29571;DHT22;16814;52.118;11.436;2023-05-10T14:05:43;17.00;99.90
29571;DHT22;16814;52.118;11.436;2023-05-10T14:08:10;17.00;99.90
29571;DHT22;16814;52.118;11.436;2023-05-10T14:10:40;17.00;99.90
29571;DHT22;16814;52.118;11.436;2023-05-10T14:13:07;17.00;99.90
29571;DHT22;16814;52.118;11.436;2023-05-10T14:15:33;17.00;99.90
29571;DHT22;16814;52.118;11.436;2023-05-10T14:18:03;17.20;99.90
29571;DHT22;16814;52.118;11.436;2023-05-10T14:20:30;17.10;99.90
29571;DHT22;16814;52.118;11.436;2023-05-10T14:23:01;17.20;99.90
29571;DHT22;16814;52.118;11.436;2023-05-10T14:25:28;17.30;99.90
29571;DHT22;16814;52.118;11.436;2023-05-10T14:27:59;17.40;99.90
29571;DHT22;16814;52.118;11.436;2023-05-10T14:30:26;17.30;99.90
29571;DHT22;16814;52.118;11.436;2023-05-10T14:32:59;17.30;99.90
29571;DHT22;16814;52.118;11.436;2023-05-10T14:35:29;17.10;99.90
29571;DHT22;16814;52.118;11.436;2023-05-10T14:37:59;17.30;99.90
29571;DHT22;16814;52.118;11.436;2023-05-10T14:40:26;17.10;99.90
29571;DHT22;16814;52.118;11.436;2023-05-10T14:42:54;17.30;99.90
29571;DHT22;16814;52.118;11.436;2023-05-10T14:45:21;17.10;99.90
29571;DHT22;16814;52.118;11.436;2023-05-10T14:47:53;17.10;99.90
29571;DHT22;16814;52.118;11.436;2023-05-10T14:50:21;17.20;99.90
29571;DHT22;16814;52.118;11.436;2023-05-10T14:52:50;17.20;99.90
29571;DHT22;16814;52.118;11.436;2023-05-10T14:55:18;17.30;99.90
29571;DHT22;16814;52.118;11.436;2023-05-10T14:57:47;17.20;99.90
29571;DHT22;16814;52.118;11.436;2023-05-10T15:00:16;17.40;99.90
29571;DHT22;16814;52.118;11.436;2023-05-10T15:02:43;17.30;99.90
29571;DHT22;16814;52.118;11.436;2023-05-10T15:05:09;17.20;99.90
29571;DHT22;16814;52.118;11.436;2023-05-10T15:07:37;17.20;99.90
29571;DHT22;16814;52.118;11.436;2023-05-10T15:10:04;17.30;99.90
29571;DHT22;16814;52.118;11.436;2023-05-10T15:12:29;17.50;99.90
29571;DHT22;16814;52.118;11.436;2023-05-10T15:14:56;17.60;99.90
29571;DHT22;16814;52.118;11.436;2023-05-10T15:17:23;17.60;99.90
29571;DHT22;16814;52.118;11.436;2023-05-10T15:19:50;17.80;99.90
29571;DHT22;16814;52.118;11.436;2023-05-10T15:22:16;17.90;99.90
29571;DHT22;16814;52.118;11.436;2023-05-10T15:24:43;17.80;99.90
29571;DHT22;16814;52.118;11.436;2023-05-10T15:27:10;17.60;99.90
29571;DHT22;16814;52.118;11.436;2023-05-10T15:29:38;17.60;99.90
29571;DHT22;16814;52.118;11.436;2023-05-10T15:32:05;17.70;99.90
29571;DHT22;16814;52.118;11.436;2023-05-10T15:34:33;17.70;99.90
29571;DHT22;16814;52.118;11.436;2023-05-10T15:37:00;17.70;99.90
29571;DHT22;16814;52.118;11.436;2023-05-10T15:39:27;17.50;99.90
29571;DHT22;16814;52.118;11.436;2023-05-10T15:41:52;17.60;99.90
29571;DHT22;16814;52.118;11.436;2023-05-10T15:44:19;17.60;99.90
29571;DHT22;16814;52.118;11.436;2023-05-10T15:46:46;17.70;99.90
29571;DHT22;16814;52.118;11.436;2023-05-10T15:49:12;17.60;99.90
29571;DHT22;16814;52.118;11.436;2023-05-10T15:51:39;17.60;99.90
29571;DHT22;16814;52.118;11.436;2023-05-10T15:54:08;17.70;99.90
29571;DHT22;16814;52.118;11.436;2023-05-10T15:56:36;17.70;99.90
29571;DHT22;16814;52.118;11.436;2023-05-10T15:59:05;17.70;99.90
29571;DHT22;16814;52.118;11.436;2023-05-10T16:01:37;17.70;99.90